sensor_id;sensor_type;location;lat;lon;timestamp;temperature;humidity
23323;DHT22;11833;52.554;13.554;2023-02-04T01:01:25;4.10;99.90
23323;DHT22;11833;52.554;13.554;2023-02-04T01:03:51;3.90;99.90
23323;DHT22;11833;52.554;13.554;2023-02-04T01:06:17;4.00;99.90
23323;DHT22;11833;52.554;13.554;2023-02-04T01:08:43;3.80;99.90
23323;DHT22;11833;52.554;13.554;2023-02-04T01:11:09;3.60;99.90
23323;DHT22;11833;52.554;13.554;2023-02-04T01:13:34;3.50;99.90
23323;DHT22;11833;52.554;13.554;2023-02-04T01:16:00;3.40;99.90
23323;DHT22;11833;52.554;13.554;2023-02-04T01:18:26;3.30;99.90
23323;DHT22;11833;52.554;13.554;2023-02-04T01:20:51;3.40;99.90
23323;DHT22;11833;52.554;13.554;2023-02-04T01:23:17;3.40;99.90
23323;DHT22;11833;52.554;13.554;2023-02-04T01:25:43;3.40;99.90
23323;DHT22;11833;52.554;13.554;2023-02-04T01:28:09;3.40;99.90
23323;DHT22;11833;52.554;13.554;2023-02-04T01:30:35;3.30;99.90
23323;DHT22;11833;52.554;13.554;2023-02-04T01:33:01;3.30;99.90
23323;DHT22;11833;52.554;13.554;2023-02-04T01:35:27;3.20;99.90
23323;DHT22;11833;52.554;13.554;2023-02-04T01:37:53;3.10;99.90
23323;DHT22;11833;52.554;13.554;2023-02-04T01:40:18;3.20;99.90
23323;DHT22;11833;52.554;13.554;2023-02-04T01:42:45;3.10;99.90
23323;DHT22;11833;52.554;13.554;2023-02-04T01:45:11;2.90;99.90
23323;DHT22;11833;52.554;13.554;2023-02-04T01:47:37;2.70;99.90
23323;DHT22;11833;52.554;13.554;2023-02-04T01:50:04;2.80;99.90
23323;DHT22;11833;52.554;13.554;2023-02-04T01:52:34;2.60;99.90
23323;DHT22;11833;52.554;13.554;2023-02-04T01:55:02;2.70;99.90
23323;DHT22;11833;52.554;13.554;2023-02-04T01:57:36;2.70;99.90
23323;DHT22;11833;52.554;13.554;2023-02-04T02:00:03;2.70;99.90
23323;DHT22;11833;52.554;13.554;2023-02-04T02:02:38;2.80;99.90
23323;DHT22;11833;52.554;13.554;2023-02-04T02:05:16;2.70;99.90
23323;DHT22;11833;52.554;13.554;2023-02-04T02:07:45;2.80;99.90
23323;DHT22;11833;52.554;13.554;2023-02-04T02:10:15;2.80;99.90
23323;DHT22;11833;52.554;13.554;2023-02-04T02:12:43;2.80;99.90
23323;DHT22;11833;52.554;13.554;2023-02-04T02:15:11;3.00;99.90
23323;DHT22;11833;52.554;13.554;2023-02-04T02:17:38;2.90;99.90
23323;DHT22;11833;52.554;13.554;2023-02-04T02:20:09;2.90;99.90
23323;DHT22;11833;52.554;13.554;2023-02-04T02:25:11;3.10;99.90
23323;DHT22;11833;52.554;13.554;2023-02-04T02:27:38;2.90;99.90
23323;DHT22;11833;52.554;13.554;2023-02-04T02:30:05;2.80;99.90
23323;DHT22;11833;52.554;13.554;2023-02-04T02:32:33;2.80;99.90
23323;DHT22;11833;52.554;13.554;2023-02-04T02:34:59;2.70;99.90
23323;DHT22;11833;52.554;13.554;2023-02-04T02:37:24;2.70;99.90
23323;DHT22;11833;52.554;13.554;2023-02-04T02:39:50;2.60;99.90
23323;DHT22;11833;52.554;13.554;2023-02-04T02:42:17;2.50;99.90
23323;DHT22;11833;52.554;13.554;2023-02-04T02:44:44;2.50;99.90
23323;DHT22;11833;52.554;13.554;2023-02-04T02:47:20;2.40;99.90
23323;DHT22;11833;52.554;13.554;2023-02-04T02:49:49;2.30;99.90
23323;DHT22;11833;52.554;13.554;2023-02-04T02:52:16;2.40;99.90
23323;DHT22;11833;52.554;13.554;2023-02-04T02:54:42;2.30;99.90
23323;DHT22;11833;52.554;13.554;2023-02-04T02:57:22;2.10;99.90
23323;DHT22;11833;52.554;13.554;2023-02-04T02:59:48;2.10;99.90
23323;DHT22;11833;52.554;13.554;2023-02-04T03:02:17;2.00;99.90
23323;DHT22;11833;52.554;13.554;2023-02-04T03:04:50;2.00;99.90
23323;DHT22;11833;52.554;13.554;2023-02-04T03:07:20;1.90;99.90
23323;DHT22;11833;52.554;13.554;2023-02-04T03:09:47;1.80;99.90
23323;DHT22;11833;52.554;13.554;2023-02-04T03:12:13;1.80;99.90
23323;DHT22;11833;52.554;13.554;2023-02-04T03:14:39;1.70;99.90
23323;DHT22;11833;52.554;13.554;2023-02-04T03:17:07;1.70;99.90
23323;DHT22;11833;52.554;13.554;2023-02-04T03:19:33;1.60;99.90
23323;DHT22;11833;52.554;13.554;2023-02-04T03:22:01;1.60;99.90
23323;DHT22;11833;52.554;13.554;2023-02-04T03:24:28;1.60;99.90
23323;DHT22;11833;52.554;13.554;2023-02-04T03:26:54;1.60;99.90
23323;DHT22;11833;52.554;13.554;2023-02-04T03:29:20;1.50;99.90
23323;DHT22;11833;52.554;13.554;2023-02-04T03:31:45;1.50;99.90
23323;DHT22;11833;52.554;13.554;2023-02-04T03:34:11;1.50;99.90
23323;DHT22;11833;52.554;13.554;2023-02-04T03:36:37;1.40;99.90
23323;DHT22;11833;52.554;13.554;2023-02-04T03:39:03;1.40;99.90
23323;DHT22;11833;52.554;13.554;2023-02-04T03:41:29;1.30;99.90
23323;DHT22;11833;52.554;13.554;2023-02-04T03:43:55;1.40;99.90
23323;DHT22;11833;52.554;13.554;2023-02-04T03:46:21;1.40;99.90
23323;DHT22;11833;52.554;13.554;2023-02-04T03:48:48;1.40;99.90
23323;DHT22;11833;52.554;13.554;2023-02-04T03:51:14;1.30;99.90
23323;DHT22;11833;52.554;13.554;2023-02-04T03:53:40;1.30;99.90
23323;DHT22;11833;52.554;13.554;2023-02-04T03:56:06;1.20;99.90
23323;DHT22;11833;52.554;13.554;2023-02-04T03:58:32;1.20;99.90
23323;DHT22;11833;52.554;13.554;2023-02-04T04:00:57;1.20;99.90
23323;DHT22;11833;52.554;13.554;2023-02-04T04:03:23;1.20;99.90
23323;DHT22;11833;52.554;13.554;2023-02-04T04:05:49;1.20;99.90
23323;DHT22;11833;52.554;13.554;2023-02-04T04:08:14;1.30;99.90
23323;DHT22;11833;52.554;13.554;2023-02-04T04:10:40;1.20;99.90
23323;DHT22;11833;52.554;13.554;2023-02-04T04:13:06;1.30;99.90
23323;DHT22;11833;52.554;13.554;2023-02-04T04:15:32;1.30;99.90
23323;DHT22;11833;52.554;13.554;2023-02-04T04:17:57;1.40;99.90
23323;DHT22;11833;52.554;13.554;2023-02-04T04:20:23;1.50;99.90
23323;DHT22;11833;52.554;13.554;2023-02-04T04:22:51;1.60;99.90
23323;DHT22;11833;52.554;13.554;2023-02-04T04:25:17;1.60;99.90
23323;DHT22;11833;52.554;13.554;2023-02-04T04:27:43;1.70;99.90
23323;DHT22;11833;52.554;13.554;2023-02-04T04:30:10;1.70;99.90
23323;DHT22;11833;52.554;13.554;2023-02-04T04:32:36;1.60;99.90
23323;DHT22;11833;52.554;13.554;2023-02-04T04:35:02;1.50;99.90
23323;DHT22;11833;52.554;13.554;2023-02-04T04:37:28;1.60;99.90
23323;DHT22;11833;52.554;13.554;2023-02-04T04:39:54;1.60;99.90
23323;DHT22;11833;52.554;13.554;2023-02-04T04:42:20;1.60;99.90
23323;DHT22;11833;52.554;13.554;2023-02-04T04:44:45;1.60;99.90
23323;DHT22;11833;52.554;13.554;2023-02-04T04:47:11;1.60;99.90
23323;DHT22;11833;52.554;13.554;2023-02-04T04:49:37;1.60;99.90
23323;DHT22;11833;52.554;13.554;2023-02-04T04:52:03;1.50;99.90
23323;DHT22;11833;52.554;13.554;2023-02-04T04:54:28;1.50;99.90
23323;DHT22;11833;52.554;13.554;2023-02-04T04:56:54;1.50;99.90
23323;DHT22;11833;52.554;13.554;2023-02-04T04:59:20;1.50;99.90
23323;DHT22;11833;52.554;13.554;2023-02-04T05:01:46;1.50;99.90
23323;DHT22;11833;52.554;13.554;2023-02-04T05:04:11;1.40;99.90
23323;DHT22;11833;52.554;13.554;2023-02-04T05:06:37;1.50;99.90
23323;DHT22;11833;52.554;13.554;2023-02-04T05:09:03;1.40;99.90
23323;DHT22;11833;52.554;13.554;2023-02-04T05:11:29;1.40;99.90
23323;DHT22;11833;52.554;13.554;2023-02-04T05:13:55;1.40;99.90
23323;DHT22;11833;52.554;13.554;2023-02-04T05:16:21;1.30;99.90
23323;DHT22;11833;52.554;13.554;2023-02-04T05:18:46;1.30;99.90
23323;DHT22;11833;52.554;13.554;2023-02-04T05:21:12;1.20;99.90
23323;DHT22;11833;52.554;13.554;2023-02-04T05:23:38;1.30;99.90
23323;DHT22;11833;52.554;13.554;2023-02-04T05:26:04;1.20;99.90
23323;DHT22;11833;52.554;13.554;2023-02-04T05:28:29;1.20;99.90
23323;DHT22;11833;52.554;13.554;2023-02-04T05:30:55;1.20;99.90
23323;DHT22;11833;52.554;13.554;2023-02-04T05:33:21;1.20;99.90
23323;DHT22;11833;52.554;13.554;2023-02-04T05:35:46;1.20;99.90
23323;DHT22;11833;52.554;13.554;2023-02-04T05:38:12;1.20;99.90
23323;DHT22;11833;52.554;13.554;2023-02-04T05:40:38;1.10;99.90
23323;DHT22;11833;52.554;13.554;2023-02-04T05:43:04;1.10;99.90
23323;DHT22;11833;52.554;13.554;2023-02-04T05:45:30;1.10;99.90
23323;DHT22;11833;52.554;13.554;2023-02-04T05:47:55;1.00;99.90
23323;DHT22;11833;52.554;13.554;2023-02-04T05:50:21;1.00;99.90
23323;DHT22;11833;52.554;13.554;2023-02-04T05:52:47;0.90;99.90
23323;DHT22;11833;52.554;13.554;2023-02-04T05:55:13;0.90;99.90
23323;DHT22;11833;52.554;13.554;2023-02-04T05:57:39;0.90;99.90
23323;DHT22;11833;52.554;13.554;2023-02-04T06:00:05;0.80;99.90
23323;DHT22;11833;52.554;13.554;2023-02-04T06:02:32;0.80;99.90
23323;DHT22;11833;52.554;13.554;2023-02-04T06:04:57;0.90;99.90
23323;DHT22;11833;52.554;13.554;2023-02-04T06:07:23;0.80;99.90
23323;DHT22;11833;52.554;13.554;2023-02-04T06:09:49;0.80;99.90
23323;DHT22;11833;52.554;13.554;2023-02-04T06:12:15;0.70;99.90
23323;DHT22;11833;52.554;13.554;2023-02-04T06:14:40;0.70;99.90
23323;DHT22;11833;52.554;13.554;2023-02-04T06:17:06;0.70;99.90
23323;DHT22;11833;52.554;13.554;2023-02-04T06:19:32;0.70;99.90
23323;DHT22;11833;52.554;13.554;2023-02-04T06:21:57;0.70;99.90
23323;DHT22;11833;52.554;13.554;2023-02-04T06:24:23;0.70;99.90
23323;DHT22;11833;52.554;13.554;2023-02-04T06:26:49;0.60;99.90
23323;DHT22;11833;52.554;13.554;2023-02-04T06:29:15;0.50;99.90
23323;DHT22;11833;52.554;13.554;2023-02-04T06:31:40;0.50;99.90
23323;DHT22;11833;52.554;13.554;2023-02-04T06:34:06;0.50;99.90
23323;DHT22;11833;52.554;13.554;2023-02-04T06:36:32;0.60;99.90
23323;DHT22;11833;52.554;13.554;2023-02-04T06:38:58;0.50;99.90
23323;DHT22;11833;52.554;13.554;2023-02-04T06:41:24;0.50;99.90
23323;DHT22;11833;52.554;13.554;2023-02-04T06:43:49;0.50;99.90
23323;DHT22;11833;52.554;13.554;2023-02-04T06:46:15;0.40;99.90
23323;DHT22;11833;52.554;13.554;2023-02-04T06:48:41;0.40;99.90
23323;DHT22;11833;52.554;13.554;2023-02-04T06:51:06;0.40;99.90
23323;DHT22;11833;52.554;13.554;2023-02-04T06:53:32;0.30;99.90
23323;DHT22;11833;52.554;13.554;2023-02-04T06:55:58;0.40;99.90
23323;DHT22;11833;52.554;13.554;2023-02-04T06:58:24;0.30;99.90
23323;DHT22;11833;52.554;13.554;2023-02-04T07:00:49;0.30;99.90
23323;DHT22;11833;52.554;13.554;2023-02-04T07:03:15;0.30;99.90
23323;DHT22;11833;52.554;13.554;2023-02-04T07:05:41;0.30;99.90
23323;DHT22;11833;52.554;13.554;2023-02-04T07:08:06;0.30;99.90
23323;DHT22;11833;52.554;13.554;2023-02-04T07:10:32;0.30;99.90
23323;DHT22;11833;52.554;13.554;2023-02-04T07:12:58;0.20;99.90
23323;DHT22;11833;52.554;13.554;2023-02-04T07:15:23;0.20;99.90
23323;DHT22;11833;52.554;13.554;2023-02-04T07:17:49;0.30;99.90
23323;DHT22;11833;52.554;13.554;2023-02-04T07:20:15;0.40;99.90
23323;DHT22;11833;52.554;13.554;2023-02-04T07:22:41;0.40;99.90
23323;DHT22;11833;52.554;13.554;2023-02-04T07:25:08;0.50;99.90
23323;DHT22;11833;52.554;13.554;2023-02-04T07:27:34;0.40;99.90
23323;DHT22;11833;52.554;13.554;2023-02-04T07:30:00;0.50;99.90
23323;DHT22;11833;52.554;13.554;2023-02-04T07:32:26;0.50;99.90
23323;DHT22;11833;52.554;13.554;2023-02-04T07:34:58;0.50;99.90
23323;DHT22;11833;52.554;13.554;2023-02-04T07:37:24;0.50;99.90
23323;DHT22;11833;52.554;13.554;2023-02-04T07:39:50;0.50;99.90
23323;DHT22;11833;52.554;13.554;2023-02-04T07:42:16;0.60;99.90
23323;DHT22;11833;52.554;13.554;2023-02-04T07:44:41;0.70;99.90
23323;DHT22;11833;52.554;13.554;2023-02-04T07:47:07;0.70;99.90
23323;DHT22;11833;52.554;13.554;2023-02-04T07:49:33;0.90;99.90
23323;DHT22;11833;52.554;13.554;2023-02-04T07:51:59;0.80;99.90
23323;DHT22;11833;52.554;13.554;2023-02-04T07:54:24;0.90;99.90
23323;DHT22;11833;52.554;13.554;2023-02-04T07:56:50;1.10;99.90
23323;DHT22;11833;52.554;13.554;2023-02-04T07:59:16;1.10;99.90
23323;DHT22;11833;52.554;13.554;2023-02-04T08:01:41;1.10;99.90
23323;DHT22;11833;52.554;13.554;2023-02-04T08:04:07;1.10;99.90
23323;DHT22;11833;52.554;13.554;2023-02-04T08:06:33;1.20;99.90
23323;DHT22;11833;52.554;13.554;2023-02-04T08:08:58;1.30;99.90
23323;DHT22;11833;52.554;13.554;2023-02-04T08:11:24;1.30;99.90
23323;DHT22;11833;52.554;13.554;2023-02-04T08:13:51;1.40;99.90
23323;DHT22;11833;52.554;13.554;2023-02-04T08:16:17;1.50;99.90
23323;DHT22;11833;52.554;13.554;2023-02-04T08:18:42;1.60;99.90
23323;DHT22;11833;52.554;13.554;2023-02-04T08:21:08;1.70;99.90
23323;DHT22;11833;52.554;13.554;2023-02-04T08:23:34;1.80;99.90
23323;DHT22;11833;52.554;13.554;2023-02-04T08:26:00;2.10;99.90
23323;DHT22;11833;52.554;13.554;2023-02-04T08:28:25;2.10;99.90
23323;DHT22;11833;52.554;13.554;2023-02-04T08:30:51;2.30;99.90
23323;DHT22;11833;52.554;13.554;2023-02-04T08:33:18;2.30;99.90
23323;DHT22;11833;52.554;13.554;2023-02-04T08:35:44;2.50;99.90
23323;DHT22;11833;52.554;13.554;2023-02-04T08:38:09;2.70;99.90
23323;DHT22;11833;52.554;13.554;2023-02-04T08:40:35;2.80;99.90
23323;DHT22;11833;52.554;13.554;2023-02-04T08:43:01;3.10;99.90
23323;DHT22;11833;52.554;13.554;2023-02-04T08:45:27;3.30;99.90
23323;DHT22;11833;52.554;13.554;2023-02-04T08:47:52;3.10;99.90
23323;DHT22;11833;52.554;13.554;2023-02-04T08:50:18;3.20;99.90
23323;DHT22;11833;52.554;13.554;2023-02-04T08:52:44;3.20;99.90
23323;DHT22;11833;52.554;13.554;2023-02-04T08:55:09;3.30;99.90
23323;DHT22;11833;52.554;13.554;2023-02-04T08:57:35;3.40;99.90
23323;DHT22;11833;52.554;13.554;2023-02-04T09:00:01;3.30;99.90
23323;DHT22;11833;52.554;13.554;2023-02-04T09:02:27;3.20;99.90
23323;DHT22;11833;52.554;13.554;2023-02-04T09:04:53;3.40;99.90
23323;DHT22;11833;52.554;13.554;2023-02-04T09:07:19;3.50;99.90
23323;DHT22;11833;52.554;13.554;2023-02-04T09:09:45;3.90;99.90
23323;DHT22;11833;52.554;13.554;2023-02-04T09:12:11;4.10;99.90
23323;DHT22;11833;52.554;13.554;2023-02-04T09:14:36;4.10;99.90
23323;DHT22;11833;52.554;13.554;2023-02-04T09:17:02;4.20;99.90
23323;DHT22;11833;52.554;13.554;2023-02-04T09:19:30;4.40;99.90
23323;DHT22;11833;52.554;13.554;2023-02-04T09:21:55;4.20;99.90
23323;DHT22;11833;52.554;13.554;2023-02-04T09:24:21;4.40;99.90
23323;DHT22;11833;52.554;13.554;2023-02-04T09:26:52;4.80;99.90
23323;DHT22;11833;52.554;13.554;2023-02-04T09:29:17;5.00;99.90
23323;DHT22;11833;52.554;13.554;2023-02-04T09:31:43;5.10;99.90
23323;DHT22;11833;52.554;13.554;2023-02-04T09:34:09;5.10;99.90
23323;DHT22;11833;52.554;13.554;2023-02-04T09:36:34;5.50;99.90
23323;DHT22;11833;52.554;13.554;2023-02-04T09:39:06;5.60;99.90
23323;DHT22;11833;52.554;13.554;2023-02-04T09:41:35;6.00;99.90
23323;DHT22;11833;52.554;13.554;2023-02-04T09:44:03;6.00;99.90
23323;DHT22;11833;52.554;13.554;2023-02-04T09:46:30;5.90;99.90
23323;DHT22;11833;52.554;13.554;2023-02-04T09:48:58;6.00;99.90
23323;DHT22;11833;52.554;13.554;2023-02-04T09:51:28;6.30;99.90
23323;DHT22;11833;52.554;13.554;2023-02-04T09:54:05;6.40;99.90
23323;DHT22;11833;52.554;13.554;2023-02-04T09:56:42;6.70;99.90
23323;DHT22;11833;52.554;13.554;2023-02-04T09:59:12;7.00;99.90
23323;DHT22;11833;52.554;13.554;2023-02-04T10:01:43;6.70;99.90
23323;DHT22;11833;52.554;13.554;2023-02-04T10:04:13;6.40;99.90
23323;DHT22;11833;52.554;13.554;2023-02-04T10:06:40;6.80;99.90
23323;DHT22;11833;52.554;13.554;2023-02-04T10:09:11;6.90;99.90
23323;DHT22;11833;52.554;13.554;2023-02-04T10:11:38;6.90;99.90
23323;DHT22;11833;52.554;13.554;2023-02-04T10:14:06;7.80;99.90
23323;DHT22;11833;52.554;13.554;2023-02-04T10:16:39;7.90;99.90
23323;DHT22;11833;52.554;13.554;2023-02-04T10:19:13;7.50;99.90
23323;DHT22;11833;52.554;13.554;2023-02-04T10:21:41;6.90;99.90
23323;DHT22;11833;52.554;13.554;2023-02-04T10:24:18;6.70;99.90
23323;DHT22;11833;52.554;13.554;2023-02-04T10:26:45;6.30;99.90
23323;DHT22;11833;52.554;13.554;2023-02-04T10:29:16;6.10;99.90
23323;DHT22;11833;52.554;13.554;2023-02-04T10:31:46;6.00;99.90
23323;DHT22;11833;52.554;13.554;2023-02-04T10:34:31;6.10;99.90
23323;DHT22;11833;52.554;13.554;2023-02-04T10:36:57;6.10;99.90
23323;DHT22;11833;52.554;13.554;2023-02-04T10:39:28;5.80;99.90
23323;DHT22;11833;52.554;13.554;2023-02-04T10:41:56;5.60;99.90
23323;DHT22;11833;52.554;13.554;2023-02-04T10:44:46;6.00;99.90
23323;DHT22;11833;52.554;13.554;2023-02-04T10:47:18;6.40;99.90
23323;DHT22;11833;52.554;13.554;2023-02-04T10:49:56;7.10;99.90
23323;DHT22;11833;52.554;13.554;2023-02-04T10:52:42;7.60;99.90
23323;DHT22;11833;52.554;13.554;2023-02-04T10:55:14;8.00;99.90
23323;DHT22;11833;52.554;13.554;2023-02-04T10:57:44;8.80;99.90
23323;DHT22;11833;52.554;13.554;2023-02-04T11:00:29;9.30;99.90
23323;DHT22;11833;52.554;13.554;2023-02-04T11:03:06;9.60;99.90
23323;DHT22;11833;52.554;13.554;2023-02-04T11:05:40;9.70;99.90
23323;DHT22;11833;52.554;13.554;2023-02-04T11:08:25;8.80;98.40
23323;DHT22;11833;52.554;13.554;2023-02-04T11:11:03;8.50;99.90
23323;DHT22;11833;52.554;13.554;2023-02-04T11:13:56;7.80;99.90
23323;DHT22;11833;52.554;13.554;2023-02-04T11:16:30;7.50;99.90
23323;DHT22;11833;52.554;13.554;2023-02-04T11:19:31;7.20;99.90
23323;DHT22;11833;52.554;13.554;2023-02-04T11:22:50;8.20;99.90
23323;DHT22;11833;52.554;13.554;2023-02-04T11:25:01;8.90;99.90
23323;DHT22;11833;52.554;13.554;2023-02-04T11:27:39;8.80;99.90
23323;DHT22;11833;52.554;13.554;2023-02-04T11:30:21;8.40;99.90
23323;DHT22;11833;52.554;13.554;2023-02-04T11:33:05;8.50;99.90
23323;DHT22;11833;52.554;13.554;2023-02-04T11:36:06;7.90;99.90
23323;DHT22;11833;52.554;13.554;2023-02-04T11:38:33;7.70;99.90
23323;DHT22;11833;52.554;13.554;2023-02-04T11:41:00;7.30;99.90
23323;DHT22;11833;52.554;13.554;2023-02-04T11:43:26;7.30;99.90
23323;DHT22;11833;52.554;13.554;2023-02-04T11:46:15;7.10;99.90
23323;DHT22;11833;52.554;13.554;2023-02-04T11:48:42;6.80;99.90
23323;DHT22;11833;52.554;13.554;2023-02-04T11:51:13;6.70;99.90
23323;DHT22;11833;52.554;13.554;2023-02-04T11:53:41;6.70;99.90
23323;DHT22;11833;52.554;13.554;2023-02-04T11:56:19;6.80;99.90
23323;DHT22;11833;52.554;13.554;2023-02-04T11:58:46;7.30;99.90
23323;DHT22;11833;52.554;13.554;2023-02-04T12:01:17;6.70;99.90
23323;DHT22;11833;52.554;13.554;2023-02-04T12:03:47;6.70;99.90
23323;DHT22;11833;52.554;13.554;2023-02-04T12:06:25;6.50;99.90
23323;DHT22;11833;52.554;13.554;2023-02-04T12:12:01;6.20;99.90
23323;DHT22;11833;52.554;13.554;2023-02-04T12:14:38;5.90;99.90
23323;DHT22;11833;52.554;13.554;2023-02-04T12:17:18;6.00;99.90
23323;DHT22;11833;52.554;13.554;2023-02-04T12:19:45;6.10;99.90
23323;DHT22;11833;52.554;13.554;2023-02-04T12:22:11;6.10;99.90
23323;DHT22;11833;52.554;13.554;2023-02-04T12:24:38;5.70;99.90
23323;DHT22;11833;52.554;13.554;2023-02-04T12:27:04;5.70;99.90
23323;DHT22;11833;52.554;13.554;2023-02-04T12:29:30;5.60;99.90
23323;DHT22;11833;52.554;13.554;2023-02-04T12:31:55;5.50;99.90
23323;DHT22;11833;52.554;13.554;2023-02-04T12:34:21;5.50;99.90
23323;DHT22;11833;52.554;13.554;2023-02-04T12:36:47;5.50;99.90
23323;DHT22;11833;52.554;13.554;2023-02-04T12:39:13;6.00;99.90
23323;DHT22;11833;52.554;13.554;2023-02-04T12:41:38;6.90;99.90
23323;DHT22;11833;52.554;13.554;2023-02-04T12:44:04;7.70;99.90
23323;DHT22;11833;52.554;13.554;2023-02-04T12:46:30;9.00;99.90
23323;DHT22;11833;52.554;13.554;2023-02-04T12:48:56;10.10;94.00
23323;DHT22;11833;52.554;13.554;2023-02-04T12:51:21;10.60;98.30
23323;DHT22;11833;52.554;13.554;2023-02-04T12:53:48;11.40;99.90
23323;DHT22;11833;52.554;13.554;2023-02-04T12:56:14;11.30;82.90
23323;DHT22;11833;52.554;13.554;2023-02-04T12:58:40;11.20;85.40
23323;DHT22;11833;52.554;13.554;2023-02-04T13:01:06;11.30;94.50
23323;DHT22;11833;52.554;13.554;2023-02-04T13:03:32;10.70;98.60
23323;DHT22;11833;52.554;13.554;2023-02-04T13:05:58;10.10;91.50
23323;DHT22;11833;52.554;13.554;2023-02-04T13:08:24;9.60;79.90
23323;DHT22;11833;52.554;13.554;2023-02-04T13:10:50;8.80;89.40
23323;DHT22;11833;52.554;13.554;2023-02-04T13:13:19;8.30;88.80
23323;DHT22;11833;52.554;13.554;2023-02-04T13:15:46;7.80;84.40
23323;DHT22;11833;52.554;13.554;2023-02-04T13:18:13;7.50;85.50
23323;DHT22;11833;52.554;13.554;2023-02-04T13:20:39;7.40;88.80
23323;DHT22;11833;52.554;13.554;2023-02-04T13:23:06;7.90;98.70
23323;DHT22;11833;52.554;13.554;2023-02-04T13:25:32;8.40;90.60
23323;DHT22;11833;52.554;13.554;2023-02-04T13:27:58;8.60;90.10
23323;DHT22;11833;52.554;13.554;2023-02-04T13:30:24;8.40;92.90
23323;DHT22;11833;52.554;13.554;2023-02-04T13:32:49;8.10;90.20
23323;DHT22;11833;52.554;13.554;2023-02-04T13:35:15;7.90;89.30
23323;DHT22;11833;52.554;13.554;2023-02-04T13:37:41;7.40;85.70
23323;DHT22;11833;52.554;13.554;2023-02-04T13:40:07;7.40;95.50
23323;DHT22;11833;52.554;13.554;2023-02-04T13:42:34;7.30;99.90
23323;DHT22;11833;52.554;13.554;2023-02-04T13:45:00;7.40;99.90
23323;DHT22;11833;52.554;13.554;2023-02-04T13:47:26;7.00;92.50
23323;DHT22;11833;52.554;13.554;2023-02-04T13:49:51;6.50;91.80
23323;DHT22;11833;52.554;13.554;2023-02-04T13:52:17;6.40;93.90
23323;DHT22;11833;52.554;13.554;2023-02-04T13:54:46;6.60;98.50
23323;DHT22;11833;52.554;13.554;2023-02-04T13:57:12;6.40;99.00
23323;DHT22;11833;52.554;13.554;2023-02-04T13:59:37;6.30;96.50
23323;DHT22;11833;52.554;13.554;2023-02-04T14:02:03;6.40;93.30
23323;DHT22;11833;52.554;13.554;2023-02-04T14:04:29;6.60;93.70
23323;DHT22;11833;52.554;13.554;2023-02-04T14:06:55;6.90;93.40
23323;DHT22;11833;52.554;13.554;2023-02-04T14:09:21;7.90;93.40
23323;DHT22;11833;52.554;13.554;2023-02-04T14:11:47;9.30;93.90
23323;DHT22;11833;52.554;13.554;2023-02-04T14:14:13;10.60;98.60
23323;DHT22;11833;52.554;13.554;2023-02-04T14:16:39;10.90;86.70
23323;DHT22;11833;52.554;13.554;2023-02-04T14:19:05;10.50;90.60
23323;DHT22;11833;52.554;13.554;2023-02-04T14:21:31;9.70;95.30
23323;DHT22;11833;52.554;13.554;2023-02-04T14:23:57;9.50;93.60
23323;DHT22;11833;52.554;13.554;2023-02-04T14:26:23;9.60;95.70
23323;DHT22;11833;52.554;13.554;2023-02-04T14:28:49;9.90;94.00
23323;DHT22;11833;52.554;13.554;2023-02-04T14:31:14;11.00;91.00
23323;DHT22;11833;52.554;13.554;2023-02-04T14:33:40;11.30;82.20
23323;DHT22;11833;52.554;13.554;2023-02-04T14:36:06;12.10;91.80
23323;DHT22;11833;52.554;13.554;2023-02-04T14:38:32;12.20;75.60
23323;DHT22;11833;52.554;13.554;2023-02-04T14:40:58;12.00;79.70
23323;DHT22;11833;52.554;13.554;2023-02-04T14:43:25;12.10;80.30
23323;DHT22;11833;52.554;13.554;2023-02-04T14:45:52;12.50;78.60
23323;DHT22;11833;52.554;13.554;2023-02-04T14:48:18;12.80;80.00
23323;DHT22;11833;52.554;13.554;2023-02-04T14:50:44;12.20;76.40
23323;DHT22;11833;52.554;13.554;2023-02-04T14:53:09;12.60;73.70
23323;DHT22;11833;52.554;13.554;2023-02-04T14:55:35;12.40;72.70
23323;DHT22;11833;52.554;13.554;2023-02-04T14:58:01;12.20;78.30
23323;DHT22;11833;52.554;13.554;2023-02-04T15:00:26;11.90;68.00
23323;DHT22;11833;52.554;13.554;2023-02-04T15:02:52;10.90;66.60
23323;DHT22;11833;52.554;13.554;2023-02-04T15:05:18;10.20;74.50
23323;DHT22;11833;52.554;13.554;2023-02-04T15:07:45;9.30;86.60
23323;DHT22;11833;52.554;13.554;2023-02-04T15:10:11;8.90;74.80
23323;DHT22;11833;52.554;13.554;2023-02-04T15:12:37;8.20;73.50
23323;DHT22;11833;52.554;13.554;2023-02-04T15:15:04;8.00;78.50
23323;DHT22;11833;52.554;13.554;2023-02-04T15:17:30;7.60;77.00
23323;DHT22;11833;52.554;13.554;2023-02-04T15:19:56;7.40;80.40
23323;DHT22;11833;52.554;13.554;2023-02-04T15:22:22;7.20;81.80
23323;DHT22;11833;52.554;13.554;2023-02-04T15:24:47;6.90;82.10
23323;DHT22;11833;52.554;13.554;2023-02-04T15:27:13;6.90;87.70
23323;DHT22;11833;52.554;13.554;2023-02-04T15:29:39;6.90;91.30
23323;DHT22;11833;52.554;13.554;2023-02-04T15:32:05;6.80;88.10
23323;DHT22;11833;52.554;13.554;2023-02-04T15:34:31;6.40;82.60
23323;DHT22;11833;52.554;13.554;2023-02-04T15:36:56;6.30;93.60
23323;DHT22;11833;52.554;13.554;2023-02-04T15:39:22;6.10;87.10
23323;DHT22;11833;52.554;13.554;2023-02-04T15:41:48;5.80;90.00
23323;DHT22;11833;52.554;13.554;2023-02-04T15:44:14;5.60;89.30
23323;DHT22;11833;52.554;13.554;2023-02-04T15:46:39;5.40;91.50
23323;DHT22;11833;52.554;13.554;2023-02-04T15:49:05;5.40;88.80
23323;DHT22;11833;52.554;13.554;2023-02-04T15:51:31;5.20;86.10
23323;DHT22;11833;52.554;13.554;2023-02-04T15:53:57;5.20;99.90
23323;DHT22;11833;52.554;13.554;2023-02-04T15:56:22;5.00;90.00
23323;DHT22;11833;52.554;13.554;2023-02-04T15:58:48;4.80;88.00
23323;DHT22;11833;52.554;13.554;2023-02-04T16:01:14;4.60;90.00
23323;DHT22;11833;52.554;13.554;2023-02-04T16:03:40;4.60;89.60
23323;DHT22;11833;52.554;13.554;2023-02-04T16:06:09;4.50;90.00
23323;DHT22;11833;52.554;13.554;2023-02-04T16:08:35;4.50;90.70
23323;DHT22;11833;52.554;13.554;2023-02-04T16:11:01;4.60;92.30
23323;DHT22;11833;52.554;13.554;2023-02-04T16:13:27;4.30;92.90
23323;DHT22;11833;52.554;13.554;2023-02-04T16:15:53;4.30;91.80
23323;DHT22;11833;52.554;13.554;2023-02-04T16:18:18;4.10;91.90
23323;DHT22;11833;52.554;13.554;2023-02-04T16:20:44;4.10;92.80
23323;DHT22;11833;52.554;13.554;2023-02-04T16:23:10;4.00;93.10
23323;DHT22;11833;52.554;13.554;2023-02-04T16:25:36;4.00;93.80
23323;DHT22;11833;52.554;13.554;2023-02-04T16:28:02;3.90;93.20
23323;DHT22;11833;52.554;13.554;2023-02-04T16:30:28;3.80;93.90
23323;DHT22;11833;52.554;13.554;2023-02-04T16:32:54;3.70;93.90
23323;DHT22;11833;52.554;13.554;2023-02-04T16:35:20;3.70;94.60
23323;DHT22;11833;52.554;13.554;2023-02-04T16:37:46;3.70;97.00